sensor_id;sensor_type;location;lat;lon;timestamp;temperature;humidity
58469;DHT22;44257;44.804;10.220;2023-03-14T00:01:16;11.90;99.90
58469;DHT22;44257;44.804;10.220;2023-03-14T00:03:43;11.70;99.90
58469;DHT22;44257;44.804;10.220;2023-03-14T00:06:09;11.50;99.90
58469;DHT22;44257;44.804;10.220;2023-03-14T00:08:36;11.40;99.90
58469;DHT22;44257;44.804;10.220;2023-03-14T00:11:12;11.30;99.90
58469;DHT22;44257;44.804;10.220;2023-03-14T00:13:38;11.20;99.90
58469;DHT22;44257;44.804;10.220;2023-03-14T00:16:06;11.10;99.90
58469;DHT22;44257;44.804;10.220;2023-03-14T00:18:33;11.00;99.90
58469;DHT22;44257;44.804;10.220;2023-03-14T00:21:01;10.90;99.90
58469;DHT22;44257;44.804;10.220;2023-03-14T00:23:28;10.70;99.90
58469;DHT22;44257;44.804;10.220;2023-03-14T00:25:59;10.70;99.90
58469;DHT22;44257;44.804;10.220;2023-03-14T00:28:25;10.70;99.90
58469;DHT22;44257;44.804;10.220;2023-03-14T00:30:51;10.70;99.90
58469;DHT22;44257;44.804;10.220;2023-03-14T00:33:17;10.70;99.90
58469;DHT22;44257;44.804;10.220;2023-03-14T00:35:43;10.60;99.90
58469;DHT22;44257;44.804;10.220;2023-03-14T00:38:10;10.60;99.90
58469;DHT22;44257;44.804;10.220;2023-03-14T00:40:39;10.60;99.90
58469;DHT22;44257;44.804;10.220;2023-03-14T00:43:05;10.50;99.90
58469;DHT22;44257;44.804;10.220;2023-03-14T00:45:31;10.50;99.90
58469;DHT22;44257;44.804;10.220;2023-03-14T00:47:59;10.60;99.90
58469;DHT22;44257;44.804;10.220;2023-03-14T00:50:25;10.70;99.90
58469;DHT22;44257;44.804;10.220;2023-03-14T00:52:51;10.70;99.90
58469;DHT22;44257;44.804;10.220;2023-03-14T00:55:17;10.60;99.90
58469;DHT22;44257;44.804;10.220;2023-03-14T00:57:43;10.60;99.90
58469;DHT22;44257;44.804;10.220;2023-03-14T01:00:10;10.60;99.90
58469;DHT22;44257;44.804;10.220;2023-03-14T01:02:37;10.70;99.90
58469;DHT22;44257;44.804;10.220;2023-03-14T01:05:03;10.70;99.90
58469;DHT22;44257;44.804;10.220;2023-03-14T01:07:29;10.70;99.90
58469;DHT22;44257;44.804;10.220;2023-03-14T01:09:57;10.70;99.90
58469;DHT22;44257;44.804;10.220;2023-03-14T01:12:23;10.70;99.90
58469;DHT22;44257;44.804;10.220;2023-03-14T01:14:48;10.70;99.90
58469;DHT22;44257;44.804;10.220;2023-03-14T01:17:14;10.70;99.90
58469;DHT22;44257;44.804;10.220;2023-03-14T01:19:40;10.70;99.90
58469;DHT22;44257;44.804;10.220;2023-03-14T01:22:06;10.60;99.90
58469;DHT22;44257;44.804;10.220;2023-03-14T01:24:33;10.60;99.90
58469;DHT22;44257;44.804;10.220;2023-03-14T01:26:59;10.70;99.90
58469;DHT22;44257;44.804;10.220;2023-03-14T01:29:26;10.70;99.90
58469;DHT22;44257;44.804;10.220;2023-03-14T01:31:52;10.70;99.90
58469;DHT22;44257;44.804;10.220;2023-03-14T01:34:18;10.60;99.90
58469;DHT22;44257;44.804;10.220;2023-03-14T01:36:44;10.60;99.90
58469;DHT22;44257;44.804;10.220;2023-03-14T01:39:11;10.60;99.90
58469;DHT22;44257;44.804;10.220;2023-03-14T01:41:39;10.70;99.90
58469;DHT22;44257;44.804;10.220;2023-03-14T01:44:09;10.70;99.90
58469;DHT22;44257;44.804;10.220;2023-03-14T01:46:37;10.70;99.90
58469;DHT22;44257;44.804;10.220;2023-03-14T01:49:24;10.70;99.90
58469;DHT22;44257;44.804;10.220;2023-03-14T01:52:11;10.70;99.90
58469;DHT22;44257;44.804;10.220;2023-03-14T01:54:47;10.70;99.90
58469;DHT22;44257;44.804;10.220;2023-03-14T01:57:40;10.70;99.90
58469;DHT22;44257;44.804;10.220;2023-03-14T02:00:12;10.70;99.90
58469;DHT22;44257;44.804;10.220;2023-03-14T02:02:48;10.70;99.90
58469;DHT22;44257;44.804;10.220;2023-03-14T02:05:25;10.70;99.90
58469;DHT22;44257;44.804;10.220;2023-03-14T02:08:01;10.70;99.90
58469;DHT22;44257;44.804;10.220;2023-03-14T02:10:44;10.70;99.90
58469;DHT22;44257;44.804;10.220;2023-03-14T02:13:12;10.60;99.90
58469;DHT22;44257;44.804;10.220;2023-03-14T02:15:57;10.60;99.90
58469;DHT22;44257;44.804;10.220;2023-03-14T02:18:52;10.60;99.90
58469;DHT22;44257;44.804;10.220;2023-03-14T02:21:51;10.60;99.90
58469;DHT22;44257;44.804;10.220;2023-03-14T02:24:32;10.60;99.90
58469;DHT22;44257;44.804;10.220;2023-03-14T02:27:18;10.60;99.90
58469;DHT22;44257;44.804;10.220;2023-03-14T02:29:57;10.60;99.90
58469;DHT22;44257;44.804;10.220;2023-03-14T02:32:25;10.50;99.90
58469;DHT22;44257;44.804;10.220;2023-03-14T02:34:57;10.40;99.90
58469;DHT22;44257;44.804;10.220;2023-03-14T02:37:32;10.40;99.90
58469;DHT22;44257;44.804;10.220;2023-03-14T02:40:01;10.30;99.90
58469;DHT22;44257;44.804;10.220;2023-03-14T02:42:27;10.30;99.90
58469;DHT22;44257;44.804;10.220;2023-03-14T02:47:59;10.20;99.90
58469;DHT22;44257;44.804;10.220;2023-03-14T02:50:33;10.10;99.90
58469;DHT22;44257;44.804;10.220;2023-03-14T02:53:00;10.10;99.90
58469;DHT22;44257;44.804;10.220;2023-03-14T02:55:26;10.10;99.90
58469;DHT22;44257;44.804;10.220;2023-03-14T02:57:56;10.10;99.90
58469;DHT22;44257;44.804;10.220;2023-03-14T03:00:22;10.10;99.90
58469;DHT22;44257;44.804;10.220;2023-03-14T03:02:48;10.10;99.90
58469;DHT22;44257;44.804;10.220;2023-03-14T03:05:14;10.20;99.90
58469;DHT22;44257;44.804;10.220;2023-03-14T03:07:40;10.20;99.90
58469;DHT22;44257;44.804;10.220;2023-03-14T03:10:06;10.30;99.90
58469;DHT22;44257;44.804;10.220;2023-03-14T03:12:33;10.20;99.90
58469;DHT22;44257;44.804;10.220;2023-03-14T03:14:58;10.20;99.90
58469;DHT22;44257;44.804;10.220;2023-03-14T03:17:24;10.20;99.90
58469;DHT22;44257;44.804;10.220;2023-03-14T03:19:50;10.20;99.90
58469;DHT22;44257;44.804;10.220;2023-03-14T03:22:16;10.20;99.90
58469;DHT22;44257;44.804;10.220;2023-03-14T03:24:42;10.20;99.90
58469;DHT22;44257;44.804;10.220;2023-03-14T03:27:09;10.30;99.90
58469;DHT22;44257;44.804;10.220;2023-03-14T03:29:36;10.30;99.90
58469;DHT22;44257;44.804;10.220;2023-03-14T03:32:02;10.30;99.90
58469;DHT22;44257;44.804;10.220;2023-03-14T03:34:29;10.30;99.90
58469;DHT22;44257;44.804;10.220;2023-03-14T03:36:58;10.30;99.90
58469;DHT22;44257;44.804;10.220;2023-03-14T03:39:26;10.30;99.90
58469;DHT22;44257;44.804;10.220;2023-03-14T03:41:52;10.30;99.90
58469;DHT22;44257;44.804;10.220;2023-03-14T03:44:18;10.30;99.90
58469;DHT22;44257;44.804;10.220;2023-03-14T03:46:44;10.30;99.90
58469;DHT22;44257;44.804;10.220;2023-03-14T03:49:10;10.30;99.90
58469;DHT22;44257;44.804;10.220;2023-03-14T03:51:36;10.20;99.90
58469;DHT22;44257;44.804;10.220;2023-03-14T03:54:02;10.10;99.90
58469;DHT22;44257;44.804;10.220;2023-03-14T03:56:31;10.10;99.90
58469;DHT22;44257;44.804;10.220;2023-03-14T03:58:57;10.10;99.90
58469;DHT22;44257;44.804;10.220;2023-03-14T04:01:23;10.00;99.90
58469;DHT22;44257;44.804;10.220;2023-03-14T04:03:52;10.00;99.90
58469;DHT22;44257;44.804;10.220;2023-03-14T04:06:18;10.00;99.90
58469;DHT22;44257;44.804;10.220;2023-03-14T04:08:47;10.10;99.90
58469;DHT22;44257;44.804;10.220;2023-03-14T04:11:26;10.10;99.90
58469;DHT22;44257;44.804;10.220;2023-03-14T04:13:58;10.10;99.90
58469;DHT22;44257;44.804;10.220;2023-03-14T04:16:25;10.10;99.90
58469;DHT22;44257;44.804;10.220;2023-03-14T04:18:54;10.10;99.90
58469;DHT22;44257;44.804;10.220;2023-03-14T04:21:22;10.10;99.90
58469;DHT22;44257;44.804;10.220;2023-03-14T04:23:52;10.10;99.90
58469;DHT22;44257;44.804;10.220;2023-03-14T04:26:19;10.20;99.90
58469;DHT22;44257;44.804;10.220;2023-03-14T04:28:45;10.20;99.90
58469;DHT22;44257;44.804;10.220;2023-03-14T04:31:19;10.20;99.90
58469;DHT22;44257;44.804;10.220;2023-03-14T04:33:45;10.20;99.90
58469;DHT22;44257;44.804;10.220;2023-03-14T04:36:13;10.20;99.90
58469;DHT22;44257;44.804;10.220;2023-03-14T04:38:39;10.20;99.90
58469;DHT22;44257;44.804;10.220;2023-03-14T04:41:06;10.10;99.90
58469;DHT22;44257;44.804;10.220;2023-03-14T04:43:32;10.00;99.90
58469;DHT22;44257;44.804;10.220;2023-03-14T04:46:06;9.90;99.90
58469;DHT22;44257;44.804;10.220;2023-03-14T04:48:33;9.80;99.90
58469;DHT22;44257;44.804;10.220;2023-03-14T04:50:59;9.80;99.90
58469;DHT22;44257;44.804;10.220;2023-03-14T04:53:29;9.80;99.90
58469;DHT22;44257;44.804;10.220;2023-03-14T04:55:56;9.80;99.90
58469;DHT22;44257;44.804;10.220;2023-03-14T04:58:24;9.80;99.90
58469;DHT22;44257;44.804;10.220;2023-03-14T05:00:52;9.80;99.90
58469;DHT22;44257;44.804;10.220;2023-03-14T05:03:41;9.80;99.90
58469;DHT22;44257;44.804;10.220;2023-03-14T05:06:07;9.80;99.90
58469;DHT22;44257;44.804;10.220;2023-03-14T05:08:56;9.80;99.90
58469;DHT22;44257;44.804;10.220;2023-03-14T05:11:38;9.80;99.90
58469;DHT22;44257;44.804;10.220;2023-03-14T05:14:22;9.70;99.90
58469;DHT22;44257;44.804;10.220;2023-03-14T05:17:14;9.60;99.90
58469;DHT22;44257;44.804;10.220;2023-03-14T05:20:04;9.50;99.90
58469;DHT22;44257;44.804;10.220;2023-03-14T05:22:53;9.60;99.90
58469;DHT22;44257;44.804;10.220;2023-03-14T05:25:39;9.70;99.90
58469;DHT22;44257;44.804;10.220;2023-03-14T05:28:14;9.70;99.90
58469;DHT22;44257;44.804;10.220;2023-03-14T05:31:09;9.70;99.90
58469;DHT22;44257;44.804;10.220;2023-03-14T05:33:54;9.60;99.90
58469;DHT22;44257;44.804;10.220;2023-03-14T05:36:29;9.50;99.90
58469;DHT22;44257;44.804;10.220;2023-03-14T05:39:15;9.50;99.90
58469;DHT22;44257;44.804;10.220;2023-03-14T05:42:06;9.50;99.90
58469;DHT22;44257;44.804;10.220;2023-03-14T05:45:04;9.50;99.90
58469;DHT22;44257;44.804;10.220;2023-03-14T05:47:52;9.50;99.90
58469;DHT22;44257;44.804;10.220;2023-03-14T05:50:40;9.50;99.90
58469;DHT22;44257;44.804;10.220;2023-03-14T05:53:29;9.50;99.90
58469;DHT22;44257;44.804;10.220;2023-03-14T05:56:18;9.50;99.90
58469;DHT22;44257;44.804;10.220;2023-03-14T05:59:07;9.60;99.90
58469;DHT22;44257;44.804;10.220;2023-03-14T06:01:42;9.60;99.90
58469;DHT22;44257;44.804;10.220;2023-03-14T06:04:14;9.50;99.90
58469;DHT22;44257;44.804;10.220;2023-03-14T06:06:40;9.50;99.90
58469;DHT22;44257;44.804;10.220;2023-03-14T06:09:07;9.50;99.90
58469;DHT22;44257;44.804;10.220;2023-03-14T06:11:36;9.50;99.90
58469;DHT22;44257;44.804;10.220;2023-03-14T06:14:03;9.50;99.90
58469;DHT22;44257;44.804;10.220;2023-03-14T06:16:29;9.50;99.90
58469;DHT22;44257;44.804;10.220;2023-03-14T06:18:55;9.60;99.90
58469;DHT22;44257;44.804;10.220;2023-03-14T06:21:22;9.50;99.90
58469;DHT22;44257;44.804;10.220;2023-03-14T06:23:48;9.60;99.90
58469;DHT22;44257;44.804;10.220;2023-03-14T06:26:15;9.60;99.90
58469;DHT22;44257;44.804;10.220;2023-03-14T06:28:41;9.60;99.90
58469;DHT22;44257;44.804;10.220;2023-03-14T06:31:07;9.70;99.90
58469;DHT22;44257;44.804;10.220;2023-03-14T06:33:41;9.70;99.90
58469;DHT22;44257;44.804;10.220;2023-03-14T06:36:07;9.70;99.90
58469;DHT22;44257;44.804;10.220;2023-03-14T06:38:34;9.70;99.90
58469;DHT22;44257;44.804;10.220;2023-03-14T06:41:05;9.70;99.90
58469;DHT22;44257;44.804;10.220;2023-03-14T06:43:36;9.70;99.90
58469;DHT22;44257;44.804;10.220;2023-03-14T06:46:03;9.80;99.90
58469;DHT22;44257;44.804;10.220;2023-03-14T06:48:31;9.90;99.90
58469;DHT22;44257;44.804;10.220;2023-03-14T06:50:57;9.90;99.90
58469;DHT22;44257;44.804;10.220;2023-03-14T06:53:23;9.90;99.90
58469;DHT22;44257;44.804;10.220;2023-03-14T06:55:50;10.00;99.90
58469;DHT22;44257;44.804;10.220;2023-03-14T06:58:17;10.10;99.90
58469;DHT22;44257;44.804;10.220;2023-03-14T07:00:45;10.10;99.90
58469;DHT22;44257;44.804;10.220;2023-03-14T07:03:14;10.10;99.90
58469;DHT22;44257;44.804;10.220;2023-03-14T07:05:44;10.20;99.90
58469;DHT22;44257;44.804;10.220;2023-03-14T07:08:09;10.30;99.90
58469;DHT22;44257;44.804;10.220;2023-03-14T07:10:35;10.40;99.90
58469;DHT22;44257;44.804;10.220;2023-03-14T07:13:01;10.50;99.90
58469;DHT22;44257;44.804;10.220;2023-03-14T07:15:31;10.50;99.90
58469;DHT22;44257;44.804;10.220;2023-03-14T07:18:02;10.50;99.90
58469;DHT22;44257;44.804;10.220;2023-03-14T07:20:28;10.60;99.90
58469;DHT22;44257;44.804;10.220;2023-03-14T07:22:55;10.70;99.90
58469;DHT22;44257;44.804;10.220;2023-03-14T07:25:33;10.80;99.90
58469;DHT22;44257;44.804;10.220;2023-03-14T07:27:59;11.10;99.90
58469;DHT22;44257;44.804;10.220;2023-03-14T07:30:25;11.20;99.90
58469;DHT22;44257;44.804;10.220;2023-03-14T07:32:51;11.40;99.90
58469;DHT22;44257;44.804;10.220;2023-03-14T07:35:17;11.40;99.90
58469;DHT22;44257;44.804;10.220;2023-03-14T07:37:43;11.50;99.90
58469;DHT22;44257;44.804;10.220;2023-03-14T07:40:11;11.50;99.90
58469;DHT22;44257;44.804;10.220;2023-03-14T07:42:41;11.60;99.90
58469;DHT22;44257;44.804;10.220;2023-03-14T07:45:15;11.80;99.90
58469;DHT22;44257;44.804;10.220;2023-03-14T07:47:41;12.10;99.90
58469;DHT22;44257;44.804;10.220;2023-03-14T07:50:08;12.40;99.90
58469;DHT22;44257;44.804;10.220;2023-03-14T07:52:34;12.60;99.90
58469;DHT22;44257;44.804;10.220;2023-03-14T07:54:59;12.80;99.90
58469;DHT22;44257;44.804;10.220;2023-03-14T07:57:25;12.90;99.90
58469;DHT22;44257;44.804;10.220;2023-03-14T07:59:51;13.00;99.90
58469;DHT22;44257;44.804;10.220;2023-03-14T08:02:17;13.10;99.90
58469;DHT22;44257;44.804;10.220;2023-03-14T08:04:45;13.40;99.90
58469;DHT22;44257;44.804;10.220;2023-03-14T08:07:11;13.60;99.90
58469;DHT22;44257;44.804;10.220;2023-03-14T08:09:37;13.80;99.90
58469;DHT22;44257;44.804;10.220;2023-03-14T08:12:03;14.10;99.90
58469;DHT22;44257;44.804;10.220;2023-03-14T08:14:29;14.30;99.90
58469;DHT22;44257;44.804;10.220;2023-03-14T08:16:57;14.50;99.90
58469;DHT22;44257;44.804;10.220;2023-03-14T08:19:23;14.80;99.90
58469;DHT22;44257;44.804;10.220;2023-03-14T08:21:50;15.00;99.90
58469;DHT22;44257;44.804;10.220;2023-03-14T08:24:16;15.00;99.90
58469;DHT22;44257;44.804;10.220;2023-03-14T08:26:41;15.00;99.90
58469;DHT22;44257;44.804;10.220;2023-03-14T08:29:07;15.10;99.90
58469;DHT22;44257;44.804;10.220;2023-03-14T08:31:35;15.20;99.90
58469;DHT22;44257;44.804;10.220;2023-03-14T08:34:01;15.30;99.90
58469;DHT22;44257;44.804;10.220;2023-03-14T08:36:27;15.30;99.90
58469;DHT22;44257;44.804;10.220;2023-03-14T08:38:53;15.40;99.90
58469;DHT22;44257;44.804;10.220;2023-03-14T08:41:20;15.40;99.90
58469;DHT22;44257;44.804;10.220;2023-03-14T08:43:45;15.50;99.90
58469;DHT22;44257;44.804;10.220;2023-03-14T08:46:11;15.60;99.90
58469;DHT22;44257;44.804;10.220;2023-03-14T08:48:37;15.70;99.90
58469;DHT22;44257;44.804;10.220;2023-03-14T08:51:10;15.80;99.90
58469;DHT22;44257;44.804;10.220;2023-03-14T08:53:40;15.90;99.90
58469;DHT22;44257;44.804;10.220;2023-03-14T08:56:07;15.70;99.90
58469;DHT22;44257;44.804;10.220;2023-03-14T08:58:38;15.40;99.90
58469;DHT22;44257;44.804;10.220;2023-03-14T09:01:08;15.10;99.90
58469;DHT22;44257;44.804;10.220;2023-03-14T09:03:35;14.90;99.90
58469;DHT22;44257;44.804;10.220;2023-03-14T09:06:09;14.70;99.90
58469;DHT22;44257;44.804;10.220;2023-03-14T09:08:36;14.40;99.90
58469;DHT22;44257;44.804;10.220;2023-03-14T09:11:02;14.40;99.90
58469;DHT22;44257;44.804;10.220;2023-03-14T09:13:28;14.40;99.90
58469;DHT22;44257;44.804;10.220;2023-03-14T09:15:55;14.30;99.90
58469;DHT22;44257;44.804;10.220;2023-03-14T09:18:21;14.30;99.90
58469;DHT22;44257;44.804;10.220;2023-03-14T09:20:48;14.40;99.90
58469;DHT22;44257;44.804;10.220;2023-03-14T09:23:14;14.30;99.90
58469;DHT22;44257;44.804;10.220;2023-03-14T09:25:40;14.10;99.90
58469;DHT22;44257;44.804;10.220;2023-03-14T09:28:06;13.90;99.90
58469;DHT22;44257;44.804;10.220;2023-03-14T09:30:32;13.80;99.90
58469;DHT22;44257;44.804;10.220;2023-03-14T09:32:58;13.80;99.90
58469;DHT22;44257;44.804;10.220;2023-03-14T09:35:25;13.80;99.90
58469;DHT22;44257;44.804;10.220;2023-03-14T09:37:51;13.90;99.90
58469;DHT22;44257;44.804;10.220;2023-03-14T09:40:17;14.00;99.90
58469;DHT22;44257;44.804;10.220;2023-03-14T09:42:50;14.20;99.90
58469;DHT22;44257;44.804;10.220;2023-03-14T09:45:26;14.30;99.90
58469;DHT22;44257;44.804;10.220;2023-03-14T09:47:53;14.50;99.90
58469;DHT22;44257;44.804;10.220;2023-03-14T09:50:24;14.60;99.90
58469;DHT22;44257;44.804;10.220;2023-03-14T09:52:54;14.60;99.90
58469;DHT22;44257;44.804;10.220;2023-03-14T09:55:22;14.50;99.90
58469;DHT22;44257;44.804;10.220;2023-03-14T09:57:50;14.40;99.90
58469;DHT22;44257;44.804;10.220;2023-03-14T10:00:22;14.20;99.90
58469;DHT22;44257;44.804;10.220;2023-03-14T10:02:55;14.10;99.90
58469;DHT22;44257;44.804;10.220;2023-03-14T10:05:23;14.00;99.90
58469;DHT22;44257;44.804;10.220;2023-03-14T10:07:50;13.90;99.90
58469;DHT22;44257;44.804;10.220;2023-03-14T10:10:24;13.90;99.90
58469;DHT22;44257;44.804;10.220;2023-03-14T10:12:57;13.90;99.90
58469;DHT22;44257;44.804;10.220;2023-03-14T10:15:31;14.00;99.90
58469;DHT22;44257;44.804;10.220;2023-03-14T10:18:00;13.80;99.90
58469;DHT22;44257;44.804;10.220;2023-03-14T10:23:05;13.10;99.90
58469;DHT22;44257;44.804;10.220;2023-03-14T10:25:36;13.00;99.90
58469;DHT22;44257;44.804;10.220;2023-03-14T10:28:38;13.00;99.90
58469;DHT22;44257;44.804;10.220;2023-03-14T10:31:03;13.20;99.90
58469;DHT22;44257;44.804;10.220;2023-03-14T10:33:32;13.30;99.90
58469;DHT22;44257;44.804;10.220;2023-03-14T10:36:03;13.50;99.90
58469;DHT22;44257;44.804;10.220;2023-03-14T10:38:34;13.70;99.90
58469;DHT22;44257;44.804;10.220;2023-03-14T10:41:02;14.00;99.90
58469;DHT22;44257;44.804;10.220;2023-03-14T10:43:34;14.10;99.90
58469;DHT22;44257;44.804;10.220;2023-03-14T10:46:10;14.20;99.90
58469;DHT22;44257;44.804;10.220;2023-03-14T10:48:57;14.20;99.90
58469;DHT22;44257;44.804;10.220;2023-03-14T10:51:28;14.30;99.90
58469;DHT22;44257;44.804;10.220;2023-03-14T10:54:41;14.50;99.90
58469;DHT22;44257;44.804;10.220;2023-03-14T10:57:00;14.80;99.90
58469;DHT22;44257;44.804;10.220;2023-03-14T10:59:32;15.20;99.90
58469;DHT22;44257;44.804;10.220;2023-03-14T11:05:26;15.30;99.90
58469;DHT22;44257;44.804;10.220;2023-03-14T11:08:00;15.20;99.90
58469;DHT22;44257;44.804;10.220;2023-03-14T11:10:33;15.00;99.90
58469;DHT22;44257;44.804;10.220;2023-03-14T11:21:14;14.60;99.90
58469;DHT22;44257;44.804;10.220;2023-03-14T11:29:34;15.00;99.90
58469;DHT22;44257;44.804;10.220;2023-03-14T11:32:16;15.00;99.90
58469;DHT22;44257;44.804;10.220;2023-03-14T11:34:54;15.00;99.90
58469;DHT22;44257;44.804;10.220;2023-03-14T11:37:32;14.90;99.90
58469;DHT22;44257;44.804;10.220;2023-03-14T11:40:10;15.10;99.90
58469;DHT22;44257;44.804;10.220;2023-03-14T11:42:42;15.40;99.90
58469;DHT22;44257;44.804;10.220;2023-03-14T11:45:18;15.60;99.90
58469;DHT22;44257;44.804;10.220;2023-03-14T11:47:47;15.50;99.90
58469;DHT22;44257;44.804;10.220;2023-03-14T11:50:24;15.50;99.90
58469;DHT22;44257;44.804;10.220;2023-03-14T11:53:39;15.50;99.90
58469;DHT22;44257;44.804;10.220;2023-03-14T11:55:44;15.40;99.90
58469;DHT22;44257;44.804;10.220;2023-03-14T11:58:31;15.30;99.90
58469;DHT22;44257;44.804;10.220;2023-03-14T12:01:05;15.20;99.90
58469;DHT22;44257;44.804;10.220;2023-03-14T12:03:40;15.20;99.90
58469;DHT22;44257;44.804;10.220;2023-03-14T12:08:56;15.30;99.90
58469;DHT22;44257;44.804;10.220;2023-03-14T12:14:01;15.60;99.90
58469;DHT22;44257;44.804;10.220;2023-03-14T12:16:34;15.50;99.90
58469;DHT22;44257;44.804;10.220;2023-03-14T12:21:49;15.60;99.90
58469;DHT22;44257;44.804;10.220;2023-03-14T12:24:25;15.50;99.90
58469;DHT22;44257;44.804;10.220;2023-03-14T12:26:54;15.50;99.90
58469;DHT22;44257;44.804;10.220;2023-03-14T12:29:20;15.50;99.90
58469;DHT22;44257;44.804;10.220;2023-03-14T12:32:07;15.50;99.90
58469;DHT22;44257;44.804;10.220;2023-03-14T12:34:40;15.50;99.90
58469;DHT22;44257;44.804;10.220;2023-03-14T12:48:22;15.30;99.90
58469;DHT22;44257;44.804;10.220;2023-03-14T12:51:00;15.20;99.90
58469;DHT22;44257;44.804;10.220;2023-03-14T12:59:33;14.90;99.90
58469;DHT22;44257;44.804;10.220;2023-03-14T13:10:00;15.00;99.90
58469;DHT22;44257;44.804;10.220;2023-03-14T13:12:39;14.80;99.90
58469;DHT22;44257;44.804;10.220;2023-03-14T13:18:07;14.50;99.90
58469;DHT22;44257;44.804;10.220;2023-03-14T13:20:53;14.50;99.90
58469;DHT22;44257;44.804;10.220;2023-03-14T13:23:31;14.60;99.90
58469;DHT22;44257;44.804;10.220;2023-03-14T13:25:59;14.70;99.90
58469;DHT22;44257;44.804;10.220;2023-03-14T13:28:26;14.90;99.90
58469;DHT22;44257;44.804;10.220;2023-03-14T13:31:01;15.00;99.90
58469;DHT22;44257;44.804;10.220;2023-03-14T13:33:27;15.20;99.90
58469;DHT22;44257;44.804;10.220;2023-03-14T13:35:57;15.30;99.90
58469;DHT22;44257;44.804;10.220;2023-03-14T13:38:26;15.30;99.90
58469;DHT22;44257;44.804;10.220;2023-03-14T13:40:54;15.40;99.90
58469;DHT22;44257;44.804;10.220;2023-03-14T13:43:33;15.60;99.90
58469;DHT22;44257;44.804;10.220;2023-03-14T13:46:04;15.80;99.90
58469;DHT22;44257;44.804;10.220;2023-03-14T13:48:32;15.90;99.90
58469;DHT22;44257;44.804;10.220;2023-03-14T13:51:07;16.10;99.90
58469;DHT22;44257;44.804;10.220;2023-03-14T13:53:50;16.10;99.90
58469;DHT22;44257;44.804;10.220;2023-03-14T13:56:18;16.00;99.90
58469;DHT22;44257;44.804;10.220;2023-03-14T13:58:45;15.90;99.90
58469;DHT22;44257;44.804;10.220;2023-03-14T14:01:23;15.80;99.90
58469;DHT22;44257;44.804;10.220;2023-03-14T14:03:51;15.70;99.90
58469;DHT22;44257;44.804;10.220;2023-03-14T14:06:34;15.70;99.90
58469;DHT22;44257;44.804;10.220;2023-03-14T14:09:10;15.70;99.90
58469;DHT22;44257;44.804;10.220;2023-03-14T14:14:16;15.40;99.90
58469;DHT22;44257;44.804;10.220;2023-03-14T14:16:44;15.20;99.90
58469;DHT22;44257;44.804;10.220;2023-03-14T14:19:12;15.00;99.90
58469;DHT22;44257;44.804;10.220;2023-03-14T14:21:39;15.00;99.90
58469;DHT22;44257;44.804;10.220;2023-03-14T14:24:05;15.10;99.90
58469;DHT22;44257;44.804;10.220;2023-03-14T14:26:32;15.20;99.90
58469;DHT22;44257;44.804;10.220;2023-03-14T14:29:04;15.30;99.90
58469;DHT22;44257;44.804;10.220;2023-03-14T14:31:30;15.40;99.90
58469;DHT22;44257;44.804;10.220;2023-03-14T14:34:01;15.40;99.90
58469;DHT22;44257;44.804;10.220;2023-03-14T14:36:39;15.50;99.90
58469;DHT22;44257;44.804;10.220;2023-03-14T14:39:23;15.60;99.90
58469;DHT22;44257;44.804;10.220;2023-03-14T14:41:50;15.60;99.90
58469;DHT22;44257;44.804;10.220;2023-03-14T14:44:27;15.60;99.90
58469;DHT22;44257;44.804;10.220;2023-03-14T14:46:55;15.70;99.90
58469;DHT22;44257;44.804;10.220;2023-03-14T14:49:28;15.80;99.90
58469;DHT22;44257;44.804;10.220;2023-03-14T14:52:05;15.80;99.90
58469;DHT22;44257;44.804;10.220;2023-03-14T14:54:34;15.90;99.90
58469;DHT22;44257;44.804;10.220;2023-03-14T14:57:04;16.10;99.90
58469;DHT22;44257;44.804;10.220;2023-03-14T14:59:31;16.30;99.90
58469;DHT22;44257;44.804;10.220;2023-03-14T15:02:00;16.50;99.90
58469;DHT22;44257;44.804;10.220;2023-03-14T15:04:27;16.70;99.90
58469;DHT22;44257;44.804;10.220;2023-03-14T15:06:55;16.70;99.90
58469;DHT22;44257;44.804;10.220;2023-03-14T15:09:21;16.70;99.90
58469;DHT22;44257;44.804;10.220;2023-03-14T15:11:48;16.70;99.90
58469;DHT22;44257;44.804;10.220;2023-03-14T15:14:14;16.60;99.90
58469;DHT22;44257;44.804;10.220;2023-03-14T15:16:40;16.60;99.90
58469;DHT22;44257;44.804;10.220;2023-03-14T15:19:35;16.50;99.90
58469;DHT22;44257;44.804;10.220;2023-03-14T15:22:02;16.30;99.90
58469;DHT22;44257;44.804;10.220;2023-03-14T15:24:27;16.30;99.90
58469;DHT22;44257;44.804;10.220;2023-03-14T15:26:53;16.10;99.90
58469;DHT22;44257;44.804;10.220;2023-03-14T15:29:19;16.00;99.90
58469;DHT22;44257;44.804;10.220;2023-03-14T15:31:45;16.00;99.90
58469;DHT22;44257;44.804;10.220;2023-03-14T15:34:11;15.90;99.90
58469;DHT22;44257;44.804;10.220;2023-03-14T15:36:37;15.80;99.90
58469;DHT22;44257;44.804;10.220;2023-03-14T15:39:05;15.80;99.90
58469;DHT22;44257;44.804;10.220;2023-03-14T15:41:31;15.70;99.90
58469;DHT22;44257;44.804;10.220;2023-03-14T15:43:57;15.60;99.90
58469;DHT22;44257;44.804;10.220;2023-03-14T15:46:23;15.60;99.90
58469;DHT22;44257;44.804;10.220;2023-03-14T15:48:50;15.50;99.90
58469;DHT22;44257;44.804;10.220;2023-03-14T15:51:17;15.40;99.90
58469;DHT22;44257;44.804;10.220;2023-03-14T15:53:43;15.30;99.90
58469;DHT22;44257;44.804;10.220;2023-03-14T15:56:13;15.30;99.90
58469;DHT22;44257;44.804;10.220;2023-03-14T15:58:39;15.20;99.90
58469;DHT22;44257;44.804;10.220;2023-03-14T16:01:06;15.20;99.90
58469;DHT22;44257;44.804;10.220;2023-03-14T16:03:37;15.20;99.90
58469;DHT22;44257;44.804;10.220;2023-03-14T16:06:06;15.10;99.90
58469;DHT22;44257;44.804;10.220;2023-03-14T16:08:31;15.10;99.90
58469;DHT22;44257;44.804;10.220;2023-03-14T16:11:00;15.10;99.90
58469;DHT22;44257;44.804;10.220;2023-03-14T16:13:26;15.20;99.90
58469;DHT22;44257;44.804;10.220;2023-03-14T16:15:57;15.20;99.90
58469;DHT22;44257;44.804;10.220;2023-03-14T16:18:24;15.20;99.90
58469;DHT22;44257;44.804;10.220;2023-03-14T16:21:02;15.20;99.90
58469;DHT22;44257;44.804;10.220;2023-03-14T16:23:31;15.20;99.90
58469;DHT22;44257;44.804;10.220;2023-03-14T16:26:07;15.10;99.90
58469;DHT22;44257;44.804;10.220;2023-03-14T16:28:34;15.10;99.90
58469;DHT22;44257;44.804;10.220;2023-03-14T16:31:08;15.10;99.90
58469;DHT22;44257;44.804;10.220;2023-03-14T16:33:39;15.10;99.90
58469;DHT22;44257;44.804;10.220;2023-03-14T16:36:10;15.00;99.90
58469;DHT22;44257;44.804;10.220;2023-03-14T16:38:39;14.80;99.90
58469;DHT22;44257;44.804;10.220;2023-03-14T16:41:16;14.70;99.90